Time;durP1;ratioP1;P1;durP2;ratioP2;P2;SDS_P1;SDS_P2;PMS_P1;PMS_P2;Temp;Humidity;BMP_temperature;BMP_pressure;BME280_temperature;BME280_humidity;BME280_pressure;Samples;Min_cycle;Max_cycle;Signal;HPM_P1;HPM_P2
2022/03/26 00:02:08;;;;;;;151.82;94.22;;;9.60;99.90;;;;;;4961753;28;20194;-64
2022/03/26 00:04:34;;;;;;;152.68;92.68;;;9.60;99.90;;;;;;4977644;28;20050;-63
2022/03/26 00:06:59;;;;;;;150.40;92.65;;;9.50;99.90;;;;;;4961776;28;20386;-64
2022/03/26 00:09:25;;;;;;;139.82;87.57;;;9.40;99.90;;;;;;4963712;28;20094;-64
2022/03/26 00:11:51;;;;;;;150.63;93.15;;;9.50;99.90;;;;;;4950228;28;20056;-63
2022/03/26 00:14:17;;;;;;;153.25;95.20;;;9.40;99.90;;;;;;4968359;28;20078;-64
2022/03/26 00:16:42;;;;;;;149.23;90.45;;;9.40;99.90;;;;;;4968348;28;20435;-63
2022/03/26 00:19:08;;;;;;;159.88;94.95;;;9.40;99.90;;;;;;4978906;28;20045;-63
2022/03/26 00:21:33;;;;;;;154.10;92.95;;;9.40;99.90;;;;;;4959541;28;20090;-63
2022/03/26 00:23:59;;;;;;;141.88;89.93;;;9.30;99.90;;;;;;4973559;28;20042;-63
2022/03/26 00:26:24;;;;;;;147.90;90.38;;;9.30;99.90;;;;;;4984882;28;20050;-63
2022/03/26 00:28:51;;;;;;;148.43;91.88;;;9.20;99.90;;;;;;4969507;28;20045;-63
2022/03/26 00:31:17;;;;;;;148.18;91.82;;;9.20;99.90;;;;;;4951527;28;20038;-63
2022/03/26 00:33:43;;;;;;;147.60;92.82;;;9.30;99.90;;;;;;4969720;28;20553;-64
2022/03/26 00:36:08;;;;;;;151.98;93.88;;;9.20;99.90;;;;;;4968295;28;20066;-63
2022/03/26 00:38:34;;;;;;;155.60;92.28;;;9.30;99.90;;;;;;4981561;28;20427;-63
2022/03/26 00:41:00;;;;;;;145.98;89.05;;;9.20;99.90;;;;;;4962119;28;20047;-63
2022/03/26 00:43:25;;;;;;;147.32;91.63;;;9.10;99.90;;;;;;4970507;28;20046;-63
2022/03/26 00:45:51;;;;;;;147.98;91.45;;;9.10;99.90;;;;;;4992283;28;20453;-64
2022/03/26 00:48:17;;;;;;;147.70;90.22;;;9.10;99.90;;;;;;4989609;28;20053;-63
2022/03/26 00:50:43;;;;;;;151.90;93.78;;;9.10;99.90;;;;;;4972713;28;20035;-63
2022/03/26 00:53:09;;;;;;;147.80;90.35;;;9.10;99.90;;;;;;4980614;28;20398;-63
2022/03/26 00:55:34;;;;;;;142.85;90.38;;;9.10;99.90;;;;;;4987466;28;20049;-63
2022/03/26 00:58:00;;;;;;;147.65;92.20;;;9.20;99.90;;;;;;4978528;28;20190;-63
2022/03/26 01:00:27;;;;;;;150.48;88.03;;;9.10;99.90;;;;;;4966457;28;20091;-63
2022/03/26 01:02:53;;;;;;;151.25;90.63;;;9.10;99.90;;;;;;4971239;28;20073;-63
2022/03/26 01:05:18;;;;;;;143.20;88.70;;;9.10;99.90;;;;;;4988143;28;20042;-64
2022/03/26 01:07:46;;;;;;;156.13;95.93;;;9.10;99.90;;;;;;4958731;28;20575;-63
2022/03/26 01:10:11;;;;;;;144.57;90.10;;;9.10;99.90;;;;;;4964362;28;20050;-64
2022/03/26 01:12:38;;;;;;;150.07;94.25;;;9.10;99.90;;;;;;4984373;28;20398;-64
2022/03/26 01:15:04;;;;;;;150.75;91.40;;;9.00;99.90;;;;;;5001814;28;20055;-64
2022/03/26 01:17:30;;;;;;;147.98;94.28;;;9.10;99.90;;;;;;4960896;28;20046;-64
2022/03/26 01:19:55;;;;;;;151.02;94.97;;;8.90;99.90;;;;;;4970453;28;20069;-64
2022/03/26 01:22:21;;;;;;;146.80;92.32;;;8.90;99.90;;;;;;4957694;28;20208;-64
2022/03/26 01:24:46;;;;;;;152.82;92.28;;;9.00;99.90;;;;;;4990010;28;20039;-64
2022/03/26 01:27:12;;;;;;;150.68;93.85;;;8.90;99.90;;;;;;4964155;28;20110;-64
2022/03/26 01:29:38;;;;;;;155.75;93.85;;;8.80;99.90;;;;;;4967494;28;20452;-64
2022/03/26 01:32:08;;;;;;;163.90;91.30;;;8.80;99.90;;;;;;4980844;28;20043;-63
2022/03/26 01:34:34;;;;;;;152.18;90.38;;;8.80;99.90;;;;;;4968772;28;20063;-64
2022/03/26 01:37:02;;;;;;;151.23;90.00;;;8.80;99.90;;;;;;4973527;28;20073;-64
2022/03/26 01:39:29;;;;;;;149.30;90.63;;;8.70;99.90;;;;;;4978609;28;20058;-64
2022/03/26 01:41:59;;;;;;;149.75;90.55;;;8.70;99.90;;;;;;4974050;28;20530;-64
2022/03/26 01:44:25;;;;;;;144.38;89.53;;;8.70;99.90;;;;;;4968086;28;20035;-64
2022/03/26 01:46:53;;;;;;;151.85;91.22;;;8.60;99.90;;;;;;4970895;28;20050;-64
2022/03/26 01:49:19;;;;;;;140.43;87.45;;;8.50;99.90;;;;;;4986004;28;20050;-64
2022/03/26 01:51:45;;;;;;;141.23;85.65;;;8.50;99.90;;;;;;4971170;28;20050;-63
2022/03/26 01:54:12;;;;;;;146.98;90.07;;;8.50;99.90;;;;;;4974192;28;20043;-64
2022/03/26 01:56:38;;;;;;;153.70;92.18;;;8.50;99.90;;;;;;4964101;28;20807;-63
2022/03/26 01:59:06;;;;;;;153.75;92.25;;;8.50;99.90;;;;;;4963175;28;20042;-64
2022/03/26 02:01:33;;;;;;;158.00;96.50;;;8.40;99.90;;;;;;4960106;28;20075;-63
2022/03/26 02:04:03;;;;;;;156.88;95.10;;;8.40;99.90;;;;;;4956530;28;20047;-64
2022/03/26 02:06:32;;;;;;;162.15;96.70;;;8.30;99.90;;;;;;4962515;28;20394;-63
2022/03/26 02:09:02;;;;;;;149.57;95.00;;;8.20;99.90;;;;;;4972170;28;20561;-64
2022/03/26 02:11:32;;;;;;;164.32;97.20;;;8.30;99.90;;;;;;4956607;28;20459;-63
2022/03/26 02:13:58;;;;;;;167.73;95.47;;;8.20;99.90;;;;;;4958437;28;20062;-64
2022/03/26 02:16:24;;;;;;;147.27;90.55;;;8.10;99.90;;;;;;4953622;28;20039;-64
2022/03/26 02:18:51;;;;;;;159.70;92.97;;;8.10;99.90;;;;;;4968200;28;20634;-63
2022/03/26 02:21:19;;;;;;;159.70;93.35;;;8.10;99.90;;;;;;4977497;28;20050;-64
2022/03/26 02:23:45;;;;;;;140.02;83.28;;;8.00;99.90;;;;;;4961887;28;20047;-63
2022/03/26 02:26:21;;;;;;;158.77;92.55;;;8.00;99.90;;;;;;5006408;28;20050;-63
2022/03/26 02:28:49;;;;;;;152.52;93.20;;;8.00;99.90;;;;;;4961969;28;20102;-64
2022/03/26 02:31:15;;;;;;;150.80;89.47;;;7.90;99.90;;;;;;4952563;28;20058;-64
2022/03/26 02:33:42;;;;;;;151.77;90.35;;;8.00;99.90;;;;;;4954101;28;20053;-64
2022/03/26 02:36:09;;;;;;;143.63;82.95;;;8.00;99.90;;;;;;4967526;28;20062;-64
2022/03/26 02:38:35;;;;;;;140.65;86.63;;;8.10;99.90;;;;;;4958942;28;20643;-63
2022/03/26 02:41:01;;;;;;;143.73;85.75;;;8.10;99.90;;;;;;5014532;28;20045;-63
2022/03/26 02:43:27;;;;;;;143.65;87.53;;;7.90;99.90;;;;;;4971486;28;20050;-64
2022/03/26 02:45:53;;;;;;;140.32;83.78;;;8.00;99.90;;;;;;4959796;28;20530;-64
2022/03/26 02:48:18;;;;;;;137.50;84.75;;;8.00;99.90;;;;;;4976735;28;20749;-63
2022/03/26 02:50:45;;;;;;;149.27;87.70;;;7.90;99.90;;;;;;4988348;28;20117;-64
2022/03/26 02:53:12;;;;;;;150.65;86.22;;;7.70;99.90;;;;;;5012545;28;20070;-63
2022/03/26 02:55:38;;;;;;;139.85;83.80;;;7.60;99.90;;;;;;4960444;28;20065;-64
2022/03/26 02:58:05;;;;;;;146.75;84.75;;;7.50;99.90;;;;;;4986068;28;20130;-64
2022/03/26 03:00:31;;;;;;;139.20;82.20;;;7.50;99.90;;;;;;4972818;28;20467;-63
2022/03/26 03:02:56;;;;;;;139.45;79.50;;;7.50;99.90;;;;;;4954673;28;20067;-64
2022/03/26 03:05:22;;;;;;;129.15;80.90;;;7.40;99.90;;;;;;4956216;28;20047;-63
2022/03/26 03:07:48;;;;;;;131.93;79.03;;;7.50;99.90;;;;;;4971637;28;20082;-63
2022/03/26 03:10:15;;;;;;;128.82;77.05;;;7.40;99.90;;;;;;4968335;28;20047;-63
2022/03/26 03:12:48;;;;;;;137.57;80.75;;;7.40;99.90;;;;;;4958697;28;20403;-63
2022/03/26 03:15:18;;;;;;;134.63;75.30;;;7.40;99.90;;;;;;4950226;28;20527;-63
2022/03/26 03:17:45;;;;;;;131.20;78.28;;;7.30;99.90;;;;;;4961252;28;20043;-64
2022/03/26 03:20:12;;;;;;;136.07;80.07;;;7.30;99.90;;;;;;4951862;28;20138;-63
2022/03/26 03:22:39;;;;;;;144.75;84.38;;;7.20;99.90;;;;;;4966759;28;20621;-63
2022/03/26 03:25:06;;;;;;;138.00;79.15;;;7.20;99.90;;;;;;4982109;28;20042;-64
2022/03/26 03:27:32;;;;;;;144.93;82.82;;;7.20;99.90;;;;;;4974599;28;20069;-63
2022/03/26 03:29:58;;;;;;;134.80;75.78;;;7.10;99.90;;;;;;4960367;28;20097;-63
2022/03/26 03:32:25;;;;;;;126.50;73.78;;;7.10;99.90;;;;;;4969061;28;20047;-63
2022/03/26 03:34:51;;;;;;;136.10;77.55;;;7.10;99.90;;;;;;4971840;28;20120;-63
2022/03/26 03:37:17;;;;;;;130.38;77.60;;;7.10;99.90;;;;;;4982372;28;20051;-63
2022/03/26 03:39:43;;;;;;;127.22;74.90;;;7.20;99.90;;;;;;4965129;28;20403;-63
2022/03/26 03:42:09;;;;;;;125.47;75.50;;;7.20;99.90;;;;;;4959663;28;20050;-63
2022/03/26 03:44:34;;;;;;;138.60;78.72;;;7.10;99.90;;;;;;4971687;28;20054;-63
2022/03/26 03:47:00;;;;;;;126.63;75.45;;;7.00;99.90;;;;;;4964968;28;20097;-63
2022/03/26 03:49:26;;;;;;;128.05;75.95;;;7.00;99.90;;;;;;4964189;28;20039;-63
2022/03/26 03:51:52;;;;;;;129.73;76.03;;;7.00;99.90;;;;;;4957646;28;20472;-63
2022/03/26 03:54:18;;;;;;;120.38;71.05;;;7.00;99.90;;;;;;4951746;28;20046;-63
2022/03/26 03:56:43;;;;;;;133.98;76.30;;;7.00;99.90;;;;;;4979891;28;20577;-63
2022/03/26 03:59:09;;;;;;;122.00;72.13;;;7.00;99.90;;;;;;4967066;28;20047;-64
2022/03/26 04:01:35;;;;;;;124.25;74.50;;;7.00;99.90;;;;;;4950622;28;20043;-63
2022/03/26 04:04:00;;;;;;;126.32;76.18;;;7.10;99.90;;;;;;4954200;28;20124;-63
2022/03/26 04:06:26;;;;;;;132.75;76.15;;;7.10;99.90;;;;;;4956301;28;20062;-64
2022/03/26 04:08:51;;;;;;;120.25;73.40;;;7.10;99.90;;;;;;4964928;28;20035;-63
2022/03/26 04:11:17;;;;;;;131.23;77.72;;;7.20;99.90;;;;;;4970391;28;20054;-64
2022/03/26 04:13:43;;;;;;;130.77;77.72;;;7.10;99.90;;;;;;4957621;28;20043;-64
2022/03/26 04:16:08;;;;;;;130.38;76.80;;;7.10;99.90;;;;;;4974186;28;20051;-64
2022/03/26 04:18:34;;;;;;;142.23;78.85;;;7.10;99.90;;;;;;4961899;28;20046;-64
2022/03/26 04:21:00;;;;;;;129.27;78.32;;;7.00;99.90;;;;;;4973760;28;20090;-64
2022/03/26 04:23:26;;;;;;;146.55;83.38;;;7.00;99.90;;;;;;4963209;28;20117;-63
2022/03/26 04:25:51;;;;;;;141.07;81.90;;;7.00;99.90;;;;;;4966082;28;20425;-63
2022/03/26 04:28:17;;;;;;;125.75;76.15;;;7.00;99.90;;;;;;4982606;28;20398;-64
2022/03/26 04:30:43;;;;;;;130.55;80.78;;;7.00;99.90;;;;;;4983182;28;20103;-64
2022/03/26 04:33:09;;;;;;;126.53;76.43;;;6.90;99.90;;;;;;4955991;28;20055;-64
2022/03/26 04:35:35;;;;;;;135.15;79.88;;;6.90;99.90;;;;;;4980633;28;20085;-63
2022/03/26 04:38:01;;;;;;;126.55;75.53;;;6.90;99.90;;;;;;4984289;28;20417;-63
2022/03/26 04:40:28;;;;;;;140.52;80.13;;;6.90;99.90;;;;;;4982456;28;20175;-63
2022/03/26 04:42:54;;;;;;;138.40;81.25;;;6.90;99.90;;;;;;4955363;28;20051;-63
2022/03/26 04:45:20;;;;;;;148.23;81.47;;;6.90;99.90;;;;;;4987663;28;20042;-63
2022/03/26 04:47:45;;;;;;;131.35;75.45;;;6.90;99.90;;;;;;4957406;28;20098;-63
2022/03/26 04:50:11;;;;;;;123.40;75.40;;;6.90;99.90;;;;;;4961470;28;20049;-64
2022/03/26 04:52:38;;;;;;;127.45;71.68;;;6.80;99.90;;;;;;4979324;28;20760;-63
2022/03/26 04:55:05;;;;;;;125.05;70.30;;;6.80;99.90;;;;;;4961949;28;20047;-63
2022/03/26 04:57:31;;;;;;;119.60;72.47;;;6.80;99.90;;;;;;4977670;28;20485;-64
2022/03/26 04:59:57;;;;;;;120.97;71.30;;;6.80;99.90;;;;;;4976706;28;20039;-64
2022/03/26 05:02:23;;;;;;;132.70;74.82;;;6.80;99.90;;;;;;4971132;28;20050;-64
2022/03/26 05:04:48;;;;;;;121.70;73.97;;;6.80;99.90;;;;;;4988444;28;20066;-63
2022/03/26 05:09:59;;;;;;;130.48;76.85;;;6.80;99.90;;;;;;4959814;28;20047;-63
2022/03/26 05:12:24;;;;;;;134.15;74.18;;;6.80;99.90;;;;;;4977295;28;20552;-64
2022/03/26 05:14:50;;;;;;;139.73;80.82;;;6.70;99.90;;;;;;4977692;28;20093;-64
2022/03/26 05:17:15;;;;;;;134.13;78.07;;;6.70;99.90;;;;;;4959847;28;20047;-63
2022/03/26 05:19:41;;;;;;;120.25;73.45;;;6.80;99.90;;;;;;4958107;28;20121;-64
2022/03/26 05:22:06;;;;;;;132.52;79.13;;;6.80;99.90;;;;;;4960514;28;20055;-64
2022/03/26 05:24:33;;;;;;;135.85;77.75;;;6.80;99.90;;;;;;4971570;28;20162;-64
2022/03/26 05:26:59;;;;;;;127.63;73.80;;;6.70;99.90;;;;;;4975809;28;20078;-64
2022/03/26 05:29:24;;;;;;;129.73;76.35;;;6.70;99.90;;;;;;4970798;28;20057;-64
2022/03/26 05:31:51;;;;;;;139.60;78.80;;;6.70;99.90;;;;;;4958907;28;20050;-64
2022/03/26 05:34:17;;;;;;;131.15;76.93;;;6.60;99.90;;;;;;4985335;28;20851;-63
2022/03/26 05:36:42;;;;;;;138.23;80.82;;;6.70;99.90;;;;;;4971602;28;20043;-64
2022/03/26 05:39:08;;;;;;;127.43;75.18;;;6.70;99.90;;;;;;4968222;28;20051;-64
2022/03/26 05:41:33;;;;;;;138.27;79.00;;;6.70;99.90;;;;;;4964243;28;20445;-64
2022/03/26 05:44:00;;;;;;;136.52;77.40;;;6.70;99.90;;;;;;4976000;28;20108;-63
2022/03/26 05:46:26;;;;;;;130.52;79.28;;;6.70;99.90;;;;;;4979563;28;20046;-64
2022/03/26 05:48:51;;;;;;;143.60;82.63;;;6.70;99.90;;;;;;4958399;28;20054;-64
2022/03/26 05:51:17;;;;;;;132.07;81.20;;;6.70;99.90;;;;;;4967604;28;20054;-64
2022/03/26 05:53:42;;;;;;;133.00;79.50;;;6.70;99.90;;;;;;4974725;28;20423;-64
2022/03/26 05:56:08;;;;;;;136.75;78.20;;;6.80;99.90;;;;;;4973199;28;20166;-64
2022/03/26 05:58:34;;;;;;;131.02;78.88;;;6.80;99.90;;;;;;4971934;28;20082;-64
2022/03/26 06:01:00;;;;;;;138.35;79.00;;;6.90;99.90;;;;;;4965394;28;20122;-63
2022/03/26 06:03:26;;;;;;;134.52;80.47;;;6.90;99.90;;;;;;4972692;28;20494;-64
2022/03/26 06:05:51;;;;;;;129.55;77.53;;;6.90;99.90;;;;;;4968430;28;20047;-64
2022/03/26 06:08:17;;;;;;;125.60;76.63;;;6.90;99.90;;;;;;4956291;28;20057;-64
2022/03/26 06:10:43;;;;;;;135.18;77.35;;;7.00;99.90;;;;;;4985307;28;20108;-64
2022/03/26 06:13:08;;;;;;;118.20;71.30;;;7.00;99.90;;;;;;4965233;28;20065;-64
2022/03/26 06:15:34;;;;;;;121.88;73.28;;;7.10;99.90;;;;;;4971316;28;20042;-63
2022/03/26 06:18:01;;;;;;;128.88;72.90;;;7.10;99.90;;;;;;4966111;28;20474;-63
2022/03/26 06:20:27;;;;;;;129.68;77.75;;;7.20;99.90;;;;;;4960633;28;20043;-63
2022/03/26 06:22:52;;;;;;;133.05;77.53;;;7.20;99.90;;;;;;4953727;28;20055;-63
2022/03/26 06:25:19;;;;;;;135.23;78.80;;;7.30;99.90;;;;;;4964011;28;20042;-63
2022/03/26 06:27:47;;;;;;;135.02;78.60;;;7.30;99.90;;;;;;4962480;28;20043;-63
2022/03/26 06:30:12;;;;;;;125.90;75.85;;;7.40;99.90;;;;;;4956216;28;20186;-63
2022/03/26 06:32:38;;;;;;;128.60;77.45;;;7.50;99.90;;;;;;4984508;28;20456;-64
2022/03/26 06:35:05;;;;;;;132.85;75.38;;;7.50;99.90;;;;;;4990897;28;20055;-64
2022/03/26 06:37:30;;;;;;;133.40;79.15;;;7.60;99.90;;;;;;4951104;28;20051;-63
2022/03/26 06:39:56;;;;;;;126.65;78.25;;;7.60;99.90;;;;;;4982537;28;20057;-63
2022/03/26 06:42:22;;;;;;;131.65;76.07;;;7.70;99.90;;;;;;4985076;28;20108;-64
2022/03/26 06:44:47;;;;;;;140.18;82.68;;;7.80;99.90;;;;;;4957424;28;20043;-63
2022/03/26 06:47:13;;;;;;;138.40;82.00;;;7.90;99.90;;;;;;4956200;28;23336;-63
2022/03/26 06:49:39;;;;;;;146.93;82.00;;;8.00;99.90;;;;;;4963067;28;20042;-64
2022/03/26 06:52:06;;;;;;;130.52;75.45;;;8.10;99.90;;;;;;4971794;28;20061;-63
2022/03/26 06:54:31;;;;;;;131.15;77.75;;;8.10;99.90;;;;;;4959360;28;20043;-64
2022/03/26 06:56:57;;;;;;;133.73;78.63;;;8.20;99.90;;;;;;4953739;28;20039;-63
2022/03/26 06:59:23;;;;;;;146.70;81.32;;;8.30;99.90;;;;;;4950827;28;20047;-63
2022/03/26 07:01:49;;;;;;;139.23;80.72;;;8.50;99.90;;;;;;4973669;28;20043;-63
2022/03/26 07:04:15;;;;;;;145.70;83.65;;;8.60;99.90;;;;;;4970727;28;20100;-63
2022/03/26 07:06:40;;;;;;;145.43;81.43;;;8.60;99.90;;;;;;4962182;28;20112;-64
2022/03/26 07:09:06;;;;;;;130.07;77.93;;;8.70;99.90;;;;;;4958030;28;20049;-63
2022/03/26 07:11:31;;;;;;;148.85;84.13;;;8.70;99.90;;;;;;4966627;28;20050;-63
2022/03/26 07:13:57;;;;;;;134.45;80.38;;;8.80;99.90;;;;;;4962367;28;20051;-63
2022/03/26 07:16:22;;;;;;;136.57;80.90;;;8.90;99.90;;;;;;4977503;28;20045;-63
2022/03/26 07:18:48;;;;;;;148.30;82.43;;;9.00;99.90;;;;;;4989671;28;20073;-63
2022/03/26 07:21:13;;;;;;;136.70;79.68;;;9.10;99.90;;;;;;4951623;28;20051;-63
2022/03/26 07:23:39;;;;;;;129.60;78.15;;;9.10;99.90;;;;;;4957733;28;20077;-63
2022/03/26 07:26:04;;;;;;;134.90;79.65;;;9.20;99.90;;;;;;4959508;28;20055;-63
2022/03/26 07:28:30;;;;;;;146.35;81.45;;;9.30;99.90;;;;;;4947898;28;20039;-63
2022/03/26 07:30:56;;;;;;;135.43;77.72;;;9.30;99.90;;;;;;4959686;28;20046;-63
2022/03/26 07:33:21;;;;;;;145.18;82.00;;;9.30;99.90;;;;;;4968284;28;20373;-63
2022/03/26 07:35:47;;;;;;;137.85;80.35;;;9.40;99.90;;;;;;4948843;28;20066;-63
2022/03/26 07:38:13;;;;;;;132.77;76.15;;;9.50;99.90;;;;;;4968898;28;20085;-63
2022/03/26 07:40:39;;;;;;;137.15;78.32;;;9.50;99.90;;;;;;4984816;28;20397;-63
2022/03/26 07:43:04;;;;;;;133.40;77.97;;;9.60;99.90;;;;;;4969220;28;20457;-63
2022/03/26 07:45:30;;;;;;;139.05;80.60;;;9.60;99.90;;;;;;4965887;28;20048;-63
2022/03/26 07:47:56;;;;;;;133.38;76.63;;;9.60;99.90;;;;;;4950789;28;20059;-63
2022/03/26 07:50:23;;;;;;;139.93;78.10;;;9.80;99.90;;;;;;4968210;28;20036;-63
2022/03/26 07:52:48;;;;;;;118.53;73.80;;;9.80;99.90;;;;;;4950226;28;20236;-63
2022/03/26 07:55:14;;;;;;;119.50;70.60;;;9.80;99.90;;;;;;4959688;28;20252;-63
2022/03/26 07:57:40;;;;;;;139.05;75.05;;;9.80;99.90;;;;;;4961820;28;20449;-63
2022/03/26 08:00:06;;;;;;;134.90;75.68;;;9.90;99.90;;;;;;4964843;28;20733;-63
2022/03/26 08:02:32;;;;;;;121.22;72.18;;;10.00;99.90;;;;;;4977121;28;20042;-63
2022/03/26 08:04:57;;;;;;;124.63;72.43;;;10.10;99.90;;;;;;4969134;28;20402;-63
2022/03/26 08:07:23;;;;;;;120.75;68.13;;;10.20;99.90;;;;;;4954210;28;20495;-63
2022/03/26 08:09:48;;;;;;;113.90;67.70;;;10.30;99.90;;;;;;4950393;28;20070;-63
2022/03/26 08:12:14;;;;;;;121.45;69.63;;;10.80;99.90;;;;;;4948727;28;20051;-63
2022/03/26 08:14:39;;;;;;;110.10;68.03;;;11.80;99.90;;;;;;4950344;28;20055;-63
2022/03/26 08:17:05;;;;;;;104.57;64.47;;;12.50;99.90;;;;;;4949597;28;20121;-63
2022/03/26 08:19:34;;;;;;;105.13;62.78;;;12.70;99.90;;;;;;4954898;28;20042;-63
2022/03/26 08:22:00;;;;;;;103.80;62.75;;;13.50;99.90;;;;;;4966256;28;20093;-63
2022/03/26 08:24:25;;;;;;;107.13;64.18;;;14.00;99.90;;;;;;4984889;28;20058;-63
2022/03/26 08:26:52;;;;;;;104.60;60.78;;;14.50;99.90;;;;;;4949419;28;20456;-63
2022/03/26 08:29:17;;;;;;;90.10;57.75;;;15.10;99.90;;;;;;4950074;28;20047;-63
2022/03/26 08:31:43;;;;;;;103.20;61.17;;;15.60;99.90;;;;;;4949467;28;20047;-63
2022/03/26 08:34:08;;;;;;;98.60;56.60;;;16.00;99.90;;;;;;4949518;28;20130;-63
2022/03/26 08:36:35;;;;;;;99.88;60.75;;;16.30;99.90;;;;;;4949741;28;20055;-63
2022/03/26 08:39:01;;;;;;;112.07;60.10;;;16.70;99.90;;;;;;4948875;28;20082;-63
2022/03/26 08:41:26;;;;;;;82.60;54.75;;;17.00;99.90;;;;;;4952320;28;20051;-63
2022/03/26 08:43:52;;;;;;;88.28;53.97;;;17.00;99.90;;;;;;4955693;28;20050;-63
2022/03/26 08:46:21;;;;;;;75.25;50.65;;;17.20;99.90;;;;;;4979048;28;20042;-63
2022/03/26 08:48:48;;;;;;;74.75;48.88;;;16.90;99.90;;;;;;4970415;28;20130;-63
2022/03/26 08:51:13;;;;;;;83.28;50.90;;;17.00;99.90;;;;;;4948477;28;20035;-63
2022/03/26 08:53:39;;;;;;;70.97;47.28;;;17.20;99.90;;;;;;4951193;28;20203;-63
2022/03/26 08:56:06;;;;;;;81.07;51.40;;;17.40;99.90;;;;;;4966613;28;20042;-63
2022/03/26 08:58:32;;;;;;;59.55;39.95;;;17.60;99.90;;;;;;4974635;28;20042;-64
2022/03/26 09:00:58;;;;;;;61.42;41.08;;;18.00;99.90;;;;;;4957375;28;20051;-63
2022/03/26 09:03:24;;;;;;;58.55;38.08;;;18.00;99.90;;;;;;5011007;28;20052;-63
2022/03/26 09:05:52;;;;;;;64.45;42.00;;;18.20;99.90;;;;;;4979729;28;20528;-62
2022/03/26 09:08:18;;;;;;;49.35;35.30;;;18.40;99.90;;;;;;4974899;28;20053;-63
2022/03/26 09:10:44;;;;;;;58.15;39.38;;;18.40;99.90;;;;;;4973449;28;20453;-63
2022/03/26 09:13:10;;;;;;;54.50;36.53;;;18.40;99.90;;;;;;4959767;28;20083;-62
2022/03/26 09:15:36;;;;;;;46.72;30.73;;;18.60;99.90;;;;;;4960261;28;20143;-63
2022/03/26 09:18:02;;;;;;;44.30;33.35;;;18.70;99.90;;;;;;4981594;28;20050;-63
2022/03/26 09:20:28;;;;;;;44.08;31.17;;;18.50;99.90;;;;;;4955497;28;20047;-63
2022/03/26 09:22:54;;;;;;;42.28;31.40;;;18.40;99.90;;;;;;4965981;28;20495;-63
2022/03/26 09:25:20;;;;;;;45.28;29.38;;;18.70;99.90;;;;;;4971642;28;20125;-63
2022/03/26 09:27:47;;;;;;;44.30;31.95;;;18.90;99.90;;;;;;4971473;28;20047;-62
2022/03/26 09:30:15;;;;;;;43.50;33.85;;;19.00;99.90;;;;;;4971641;28;20071;-63
2022/03/26 09:32:41;;;;;;;41.53;34.03;;;19.00;99.90;;;;;;4967808;28;20055;-63
2022/03/26 09:35:08;;;;;;;46.08;32.78;;;19.20;99.90;;;;;;4954282;28;20392;-63
2022/03/26 09:37:34;;;;;;;42.95;31.30;;;19.20;99.90;;;;;;4951751;28;20059;-63
2022/03/26 09:40:02;;;;;;;37.83;28.60;;;19.30;99.90;;;;;;4977760;28;20050;-63
2022/03/26 09:42:28;;;;;;;44.10;31.95;;;19.30;99.80;;;;;;4968624;28;20062;-63
2022/03/26 09:44:56;;;;;;;41.00;31.02;;;19.30;99.60;;;;;;4962463;28;20035;-63
2022/03/26 09:47:21;;;;;;;35.97;29.10;;;19.50;99.40;;;;;;4957103;28;20510;-63
2022/03/26 09:49:47;;;;;;;43.10;30.60;;;19.30;99.50;;;;;;4966710;28;20039;-63
2022/03/26 09:52:13;;;;;;;36.08;25.17;;;19.50;99.20;;;;;;4957077;28;20675;-63
2022/03/26 09:54:38;;;;;;;32.78;23.60;;;19.50;99.00;;;;;;4966538;28;20558;-63
2022/03/26 09:57:04;;;;;;;29.40;22.70;;;19.70;98.70;;;;;;4977837;28;20125;-63
2022/03/26 09:59:30;;;;;;;35.13;21.80;;;19.70;98.30;;;;;;4951239;28;20074;-63
2022/03/26 10:01:55;;;;;;;27.35;21.00;;;19.80;98.20;;;;;;4958177;28;20046;-62
2022/03/26 10:04:22;;;;;;;26.45;18.90;;;20.00;98.20;;;;;;4962828;28;20134;-62
2022/03/26 10:06:53;;;;;;;23.75;16.90;;;20.00;97.70;;;;;;4973103;28;20038;-62
2022/03/26 10:09:33;;;;;;;23.55;17.05;;;20.20;97.50;;;;;;4960383;28;20454;-62
2022/03/26 10:12:08;;;;;;;17.90;12.43;;;20.10;96.90;;;;;;4962674;28;20077;-63
2022/03/26 10:14:45;;;;;;;17.15;13.20;;;20.00;96.90;;;;;;4988655;28;20054;-62
2022/03/26 10:17:19;;;;;;;16.00;12.07;;;19.80;96.00;;;;;;4976663;28;20166;-62
2022/03/26 10:20:14;;;;;;;18.00;13.70;;;19.70;95.40;;;;;;4974333;28;20122;-62
2022/03/26 10:22:50;;;;;;;15.55;11.52;;;19.70;95.90;;;;;;4969894;28;20502;-63
2022/03/26 10:25:20;;;;;;;20.05;13.38;;;19.40;95.80;;;;;;4973538;28;20051;-62
2022/03/26 10:27:59;;;;;;;15.63;10.68;;;19.60;96.00;;;;;;4957246;28;20035;-62
2022/03/26 10:33:30;;;;;;;19.80;11.38;;;19.50;96.50;;;;;;4950795;29;20058;-62
2022/03/26 10:35:58;;;;;;;9.32;7.75;;;19.20;96.70;;;;;;4975663;28;20081;-63
2022/03/26 10:38:31;;;;;;;9.48;7.03;;;19.00;96.10;;;;;;4971926;28;20101;-62
2022/03/26 10:41:02;;;;;;;11.98;9.40;;;19.00;96.20;;;;;;4965396;28;20046;-63
2022/03/26 10:43:28;;;;;;;14.55;9.10;;;18.90;96.20;;;;;;4950958;29;20047;-63
2022/03/26 10:45:55;;;;;;;12.25;8.10;;;18.70;96.20;;;;;;4958353;28;20093;-63
2022/03/26 10:48:27;;;;;;;17.38;9.18;;;18.60;96.40;;;;;;4966750;28;20420;-63
2022/03/26 10:51:00;;;;;;;16.67;9.23;;;18.70;97.00;;;;;;4970696;28;20050;-63
2022/03/26 10:53:40;;;;;;;14.30;8.55;;;18.90;96.80;;;;;;4953301;28;20055;-63
2022/03/26 10:56:08;;;;;;;10.98;7.43;;;19.10;96.80;;;;;;4986584;28;20046;-63
2022/03/26 10:58:35;;;;;;;11.35;7.68;;;19.00;95.90;;;;;;4970155;28;20043;-63
2022/03/26 11:01:02;;;;;;;9.85;5.80;;;19.20;95.20;;;;;;4956552;28;20130;-62
2022/03/26 11:03:27;;;;;;;10.20;5.68;;;19.20;95.40;;;;;;4953791;28;20043;-63
2022/03/26 11:05:56;;;;;;;6.55;4.80;;;19.10;94.90;;;;;;4959057;28;20045;-63
2022/03/26 11:08:24;;;;;;;7.72;5.18;;;19.30;94.70;;;;;;4957245;28;20054;-63
2022/03/26 11:10:52;;;;;;;8.32;6.07;;;19.20;95.50;;;;;;4962186;28;20047;-63
2022/03/26 11:13:19;;;;;;;13.40;6.68;;;19.30;95.90;;;;;;4969342;28;20105;-63
2022/03/26 11:15:51;;;;;;;15.20;7.38;;;19.40;96.20;;;;;;4968071;28;20039;-63
2022/03/26 11:18:45;;;;;;;7.72;5.57;;;19.30;96.00;;;;;;4968068;28;20065;-63
2022/03/26 11:21:41;;;;;;;10.23;5.05;;;19.50;95.30;;;;;;4964977;28;20101;-63
2022/03/26 11:24:41;;;;;;;9.73;5.95;;;19.30;95.00;;;;;;4958415;28;20137;-63
2022/03/26 11:27:09;;;;;;;10.30;5.55;;;19.20;95.40;;;;;;4960405;28;20050;-62
2022/03/26 11:29:54;;;;;;;8.15;4.93;;;19.40;95.40;;;;;;4953878;28;20054;-62
2022/03/26 11:32:29;;;;;;;7.57;4.30;;;19.60;94.40;;;;;;4957993;28;20126;-62
2022/03/26 11:35:07;;;;;;;8.70;4.70;;;19.70;94.70;;;;;;4963943;28;20061;-62
2022/03/26 11:37:32;;;;;;;10.68;4.80;;;19.90;94.30;;;;;;4962435;28;20127;-62
2022/03/26 11:39:58;;;;;;;9.60;4.88;;;19.90;94.10;;;;;;4966610;28;20137;-63
2022/03/26 11:42:37;;;;;;;7.43;4.70;;;19.90;93.30;;;;;;4968674;28;20043;-63
2022/03/26 11:51:16;;;;;;;8.50;4.82;;;20.50;93.30;;;;;;4950875;29;20087;-63
2022/03/26 11:53:44;;;;;;;8.15;4.45;;;20.50;93.10;;;;;;4960149;28;20391;-63
2022/03/26 11:56:28;;;;;;;10.88;4.35;;;20.70;93.60;;;;;;4957277;28;20558;-63
2022/03/26 11:59:03;;;;;;;9.05;5.00;;;20.70;93.20;;;;;;4971174;28;20201;-63
2022/03/26 12:01:40;;;;;;;4.95;4.07;;;20.70;92.80;;;;;;4952608;28;20055;-63
2022/03/26 12:04:11;;;;;;;6.93;4.53;;;20.70;92.30;;;;;;4950033;28;20059;-63
2022/03/26 12:06:48;;;;;;;5.88;3.45;;;20.80;92.70;;;;;;4949926;28;20534;-63
2022/03/26 12:09:35;;;;;;;5.55;4.05;;;20.70;92.60;;;;;;4955627;28;20105;-63
2022/03/26 12:12:12;;;;;;;4.85;3.88;;;21.00;92.70;;;;;;4969851;28;20047;-63
2022/03/26 12:15:04;;;;;;;8.20;3.22;;;20.90;93.80;;;;;;4984191;28;20871;-63
2022/03/26 12:17:45;;;;;;;6.70;3.65;;;20.90;92.70;;;;;;4958929;28;20050;-63
2022/03/26 12:20:21;;;;;;;4.90;2.92;;;20.60;92.90;;;;;;4951543;28;20410;-63
2022/03/26 12:22:50;;;;;;;7.68;3.50;;;20.90;92.60;;;;;;4948923;29;20151;-63
2022/03/26 12:25:16;;;;;;;6.07;3.63;;;20.60;92.30;;;;;;4954057;28;20118;-63
2022/03/26 12:27:45;;;;;;;5.45;3.33;;;20.80;92.60;;;;;;4952690;28;20044;-63
2022/03/26 12:30:13;;;;;;;3.40;2.85;;;20.80;92.20;;;;;;4970578;28;20085;-63
2022/03/26 12:32:41;;;;;;;6.90;2.83;;;20.70;92.10;;;;;;4958997;28;20522;-63
2022/03/26 12:35:09;;;;;;;4.65;2.53;;;20.90;92.00;;;;;;4949973;28;20110;-63
2022/03/26 12:37:36;;;;;;;3.95;1.83;;;21.00;92.40;;;;;;4949093;28;20089;-63
2022/03/26 12:40:05;;;;;;;4.00;2.13;;;21.10;92.70;;;;;;4963584;28;20046;-63
2022/03/26 12:42:30;;;;;;;3.13;1.67;;;20.90;92.70;;;;;;4992224;28;20081;-63